createdAt,value
2022-11-18T00:04:12.006Z,92875.16
2022-11-18T00:09:15.267Z,92874.56
2022-11-18T00:14:23.809Z,92879.31
2022-11-18T00:19:38.968Z,92877.09
2022-11-18T00:24:41.921Z,92869.56
2022-11-18T00:29:45.170Z,92883.19
2022-11-18T00:34:48.710Z,92881.94
2022-11-18T00:39:51.828Z,92857.56
2022-11-18T00:44:54.866Z,92844.75
2022-11-18T00:49:58.296Z,92851.25
2022-11-18T00:55:01.418Z,92845.91
2022-11-18T01:00:04.987Z,92844.22
2022-11-18T01:05:09.036Z,92822.38
2022-11-18T01:10:12.517Z,92846.25
2022-11-18T01:15:15.708Z,92858.59
2022-11-18T01:20:19.085Z,92831.09
2022-11-18T01:25:22.071Z,92832.28
2022-11-18T01:30:25.977Z,92859.22
2022-11-18T01:35:29.932Z,92830.81
2022-11-18T01:40:34.964Z,92842.88
2022-11-18T01:45:40.398Z,92855.28
2022-11-18T01:50:57.029Z,92853.22
2022-11-18T01:56:06.210Z,92849.69
2022-11-18T02:01:10.207Z,92843.78
2022-11-18T02:06:14.301Z,92826.44
2022-11-18T02:11:36.855Z,92811.00
2022-11-18T02:17:06.641Z,92807.63
2022-11-18T02:22:43.620Z,92814.75
2022-11-18T02:28:16.241Z,92813.16
2022-11-18T02:33:40.094Z,92832.78
2022-11-18T02:38:50.172Z,92815.41
2022-11-18T02:43:57.402Z,92818.16
2022-11-18T02:49:05.208Z,92808.22
2022-11-18T02:54:12.768Z,92799.25
2022-11-18T02:59:19.626Z,92816.88
2022-11-18T03:04:23.428Z,92807.72
2022-11-18T03:09:37.071Z,92809.31
2022-11-18T03:14:49.118Z,92803.16
2022-11-18T03:20:11.441Z,92795.47
2022-11-18T03:25:35.043Z,92786.44
2022-11-18T03:30:45.190Z,92781.56
2022-11-18T03:35:52.139Z,92805.94
2022-11-18T03:41:00.895Z,92825.75
2022-11-18T03:46:19.021Z,92792.94
2022-11-18T03:51:32.159Z,92815.97
2022-11-18T03:56:49.160Z,92820.41
2022-11-18T04:02:04.200Z,92816.78
2022-11-18T04:07:26.391Z,92834.47
2022-11-18T04:12:33.924Z,92817.03
2022-11-18T04:17:37.392Z,92819.69
2022-11-18T04:22:40.445Z,92789.91
2022-11-18T04:27:44.533Z,92816.13
2022-11-18T04:32:47.937Z,92825.28
2022-11-18T04:37:51.474Z,92822.72
2022-11-18T04:43:17.692Z,92810.38
2022-11-18T04:48:26.422Z,92803.44
2022-11-18T04:53:30.036Z,92819.63
2022-11-18T04:58:33.846Z,92820.13
2022-11-18T05:03:37.474Z,92811.63
2022-11-18T05:08:40.849Z,92832.50
2022-11-18T05:13:44.804Z,92817.34
2022-11-18T05:18:48.323Z,92818.50
2022-11-18T05:23:51.736Z,92832.69
2022-11-18T05:28:55.894Z,92844.38
2022-11-18T05:33:59.517Z,92833.88
2022-11-18T05:39:03.835Z,92846.69
2022-11-18T05:44:09.512Z,92851.47
2022-11-18T05:49:12.783Z,92855.25
2022-11-18T05:54:19.326Z,92823.25
2022-11-18T05:59:22.830Z,92853.53
2022-11-18T06:04:39.048Z,92858.59
2022-11-18T06:09:45.715Z,92867.38
2022-11-18T06:19:46.367Z,92880.94
2022-11-18T06:24:50.928Z,92878.09
2022-11-18T06:29:54.551Z,92880.72
2022-11-18T06:34:57.649Z,92874.53
2022-11-18T06:40:00.768Z,92864.94
2022-11-18T06:45:06.025Z,92859.31
2022-11-18T06:55:36.394Z,92874.00
2022-11-18T07:00:39.861Z,92858.84
2022-11-18T07:05:42.964Z,92856.00
2022-11-18T07:10:53.315Z,92868.44
2022-11-18T07:15:56.696Z,92864.50
2022-11-18T07:21:05.837Z,92862.78
2022-11-18T07:26:09.599Z,92869.34
2022-11-18T07:31:16.440Z,92873.91
2022-11-18T07:36:23.205Z,92876.56
2022-11-18T07:41:29.697Z,92884.94
2022-11-18T07:46:35.798Z,92876.66
2022-11-18T07:51:40.417Z,92885.69
2022-11-18T07:56:43.637Z,92880.50
2022-11-18T08:01:47.332Z,92879.97
2022-11-18T08:06:50.537Z,92871.88
2022-11-18T08:11:53.677Z,92884.16
2022-11-18T08:16:57.383Z,92881.19
2022-11-18T08:22:00.581Z,92890.66
2022-11-18T08:27:04.374Z,92908.34
2022-11-18T08:32:07.998Z,92912.53
2022-11-18T08:37:11.544Z,92909.38
2022-11-18T08:42:14.644Z,92922.75
2022-11-18T08:47:18.540Z,92918.94
2022-11-18T08:52:22.737Z,92919.88
2022-11-18T08:57:29.276Z,92907.06
2022-11-18T09:02:32.997Z,92908.75
2022-11-18T09:07:36.807Z,92906.13
2022-11-18T09:12:40.378Z,92907.09
2022-11-18T09:17:43.611Z,92913.38
2022-11-18T09:22:47.588Z,92913.50
2022-11-18T09:27:53.216Z,92924.44
2022-11-18T09:32:57.750Z,92935.47
2022-11-18T09:38:01.932Z,92932.78
2022-11-18T09:43:33.899Z,92917.41
2022-11-18T09:48:57.341Z,92906.63
2022-11-18T09:54:00.616Z,92912.50
2022-11-18T09:59:05.019Z,92903.53
2022-11-18T10:04:20.078Z,92904.09
2022-11-18T10:09:28.597Z,92889.22
2022-11-18T10:14:44.262Z,92898.28
2022-11-18T10:19:55.608Z,92884.28
2022-11-18T10:25:02.776Z,92865.88
2022-11-18T10:30:14.925Z,92854.53
2022-11-18T10:35:44.371Z,92852.41
2022-11-18T10:40:52.337Z,92853.38
2022-11-18T10:45:55.865Z,92845.13
2022-11-18T10:51:19.307Z,92847.00
2022-11-18T10:56:22.765Z,92835.81
2022-11-18T11:01:27.991Z,92853.03
2022-11-18T11:06:39.660Z,92858.34
2022-11-18T11:11:57.413Z,92862.50
2022-11-18T11:17:03.542Z,92856.41
2022-11-18T11:22:13.858Z,92858.41
2022-11-18T11:33:19.723Z,92848.63
2022-11-18T11:38:59.888Z,92825.78
2022-11-18T11:44:21.931Z,92833.78
2022-11-18T11:49:35.550Z,92846.22
2022-11-18T11:55:01.275Z,92842.34
2022-11-18T12:00:20.301Z,92846.97
2022-11-18T12:05:28.969Z,92837.78
2022-11-18T12:11:14.793Z,92835.25
2022-11-18T12:16:43.183Z,92841.13
2022-11-18T12:21:46.782Z,92825.19
2022-11-18T12:26:51.577Z,92837.75
2022-11-18T12:32:04.694Z,92819.47
2022-11-18T12:37:26.826Z,92811.72
2022-11-18T12:43:05.214Z,92801.50
2022-11-18T12:48:32.702Z,92779.16
2022-11-18T12:53:53.128Z,92787.94
2022-11-18T12:58:58.383Z,92767.84
2022-11-18T13:04:22.839Z,92770.19
2022-11-18T13:09:28.624Z,92747.09
2022-11-18T13:14:55.465Z,92743.16
2022-11-18T13:19:59.177Z,92751.03
2022-11-18T13:25:02.954Z,92754.66
2022-11-18T13:30:11.909Z,92772.63
2022-11-18T13:35:18.883Z,92767.44
2022-11-18T13:40:26.908Z,92782.78
2022-11-18T13:45:31.513Z,92786.56
2022-11-18T13:50:44.322Z,92779.03
2022-11-18T13:56:02.193Z,92779.03
2022-11-18T14:01:13.807Z,92782.50
2022-11-18T14:06:34.772Z,92782.44
2022-11-18T14:11:43.943Z,92794.69
2022-11-18T14:16:48.089Z,92817.41
2022-11-18T14:22:18.359Z,92825.34
2022-11-18T14:27:39.899Z,92814.66
2022-11-18T14:32:44.027Z,92831.78
2022-11-18T14:37:47.748Z,92835.84
2022-11-18T14:42:51.742Z,92851.28
2022-11-18T14:47:55.336Z,92834.25
2022-11-18T14:52:59.275Z,92833.41
2022-11-18T14:58:03.136Z,92843.28
2022-11-18T15:03:06.871Z,92835.72
2022-11-18T15:08:10.175Z,92833.25
2022-11-18T15:13:14.218Z,92844.44
2022-11-18T15:18:17.843Z,92849.00
2022-11-18T15:23:25.705Z,92871.41
2022-11-18T15:28:32.734Z,92858.19
2022-11-18T15:33:35.888Z,92860.72
2022-11-18T15:38:39.026Z,92868.16
2022-11-18T15:43:42.536Z,92868.22
2022-11-18T15:48:46.359Z,92884.97
2022-11-18T15:53:49.815Z,92890.84
2022-11-18T15:59:01.625Z,92901.19
2022-11-18T16:04:08.534Z,92895.09
2022-11-18T16:09:11.903Z,92908.59
2022-11-18T16:14:18.161Z,92909.16
2022-11-18T16:19:24.857Z,92913.66
2022-11-18T16:24:29.384Z,92933.88
2022-11-18T16:29:33.038Z,92930.00
2022-11-18T16:34:38.753Z,92912.53
2022-11-18T16:39:42.436Z,92928.22
2022-11-18T16:44:45.801Z,92923.16
2022-11-18T16:49:48.952Z,92920.88
2022-11-18T16:54:53.464Z,92920.19
2022-11-18T16:59:56.575Z,92926.94
2022-11-18T17:05:00.072Z,92932.03
2022-11-18T17:10:03.263Z,92934.56
2022-11-18T17:15:15.639Z,92943.97
2022-11-18T17:20:19.447Z,92954.69
2022-11-18T17:25:23.001Z,92950.66
2022-11-18T17:30:26.319Z,92967.56
2022-11-18T17:35:29.761Z,92967.97
2022-11-18T17:40:33.054Z,92975.47
2022-11-18T17:45:41.624Z,92978.66
2022-11-18T17:50:45.229Z,92979.75
2022-11-18T17:55:49.383Z,92982.50
2022-11-18T18:00:53.008Z,92989.63
2022-11-18T18:06:02.871Z,92999.03
2022-11-18T18:11:11.159Z,92983.16
2022-11-18T18:16:14.690Z,92974.94
2022-11-18T18:21:18.453Z,92968.75
2022-11-18T18:26:25.367Z,92986.91
2022-11-18T18:31:37.630Z,92986.09
2022-11-18T18:36:41.544Z,92987.09
2022-11-18T18:41:45.233Z,92979.25
2022-11-18T18:46:49.903Z,92987.69
2022-11-18T18:51:55.879Z,92985.97
2022-11-18T18:56:59.816Z,92997.91
2022-11-18T19:02:03.937Z,93014.53
2022-11-18T19:07:08.107Z,93011.28
2022-11-18T19:12:29.903Z,93011.38
2022-11-18T19:17:33.779Z,93013.66
2022-11-18T19:22:37.044Z,93013.72
2022-11-18T19:27:41.517Z,93002.53
2022-11-18T19:32:44.595Z,93028.13
2022-11-18T19:37:47.654Z,93024.22
2022-11-18T19:42:51.231Z,93034.16
2022-11-18T19:47:57.819Z,93019.66
2022-11-18T19:53:21.274Z,93010.78
2022-11-18T19:58:24.572Z,92991.75
2022-11-18T20:03:28.845Z,92957.19
2022-11-18T20:08:35.242Z,93006.25
2022-11-18T20:13:40.200Z,93017.31
2022-11-18T20:18:44.258Z,93046.78
2022-11-18T20:23:50.625Z,93056.16
2022-11-18T20:28:57.627Z,93045.94
2022-11-18T20:34:01.375Z,93043.97
2022-11-18T20:39:07.961Z,93048.84
2022-11-18T20:44:11.609Z,93060.84
2022-11-18T20:49:15.042Z,93061.06
2022-11-18T20:54:18.569Z,93039.75
2022-11-18T20:59:21.966Z,93046.88
2022-11-18T21:04:25.030Z,93070.91
2022-11-18T21:09:33.340Z,93066.28
2022-11-18T21:14:36.485Z,93079.03
2022-11-18T21:19:39.724Z,93080.66
2022-11-18T21:24:43.133Z,93069.09
2022-11-18T21:29:50.122Z,93081.50
2022-11-18T21:34:53.450Z,93065.06
2022-11-18T21:39:56.611Z,93075.09
2022-11-18T21:45:00.610Z,93048.78
2022-11-18T21:50:03.940Z,93057.81
2022-11-18T21:55:08.291Z,93058.44
2022-11-18T22:00:11.905Z,93065.56
2022-11-18T22:05:15.649Z,93071.28
2022-11-18T22:10:19.285Z,93079.84
2022-11-18T22:15:22.976Z,93068.13
2022-11-18T22:20:26.904Z,93071.50
2022-11-18T22:25:30.058Z,93062.19
2022-11-18T22:30:33.589Z,93062.75
2022-11-18T22:35:37.293Z,93064.16
2022-11-18T22:40:40.809Z,93055.91
2022-11-18T22:45:44.557Z,93064.38
2022-11-18T22:50:57.188Z,93071.78
2022-11-18T22:56:06.463Z,93061.41
2022-11-18T23:01:15.162Z,93065.59
2022-11-18T23:06:19.003Z,93050.25
2022-11-18T23:11:42.174Z,93034.50
2022-11-18T23:16:46.193Z,93051.72
2022-11-18T23:21:49.774Z,93044.69
2022-11-18T23:26:53.349Z,93048.56
2022-11-18T23:31:57.084Z,93048.69
2022-11-18T23:37:00.421Z,93044.38
2022-11-18T23:42:05.482Z,93029.22
2022-11-18T23:47:08.880Z,93040.41
2022-11-18T23:52:13.154Z,93035.56
2022-11-18T23:57:16.938Z,93040.34
